Time;durP1;ratioP1;P1;durP2;ratioP2;P2;SDS_P1;SDS_P2;PMS_P1;PMS_P2;Temp;Humidity;BMP_temperature;BMP_pressure;BME280_temperature;BME280_humidity;BME280_pressure;Samples;Min_cycle;Max_cycle;Signal;HPM_P1;HPM_P2
2023/05/16 00:00:13;;;;;;;12.80;9.27;;;;;;;17.22;71.46;100107.47;5034949;28;20398;-74
2023/05/16 00:02:39;;;;;;;12.15;9.65;;;;;;;17.18;71.50;100111.91;5034583;28;20457;-74
2023/05/16 00:05:06;;;;;;;10.75;9.48;;;;;;;17.18;71.94;100105.59;5033575;28;20395;-74
2023/05/16 00:07:32;;;;;;;11.70;10.50;;;;;;;17.19;71.86;100104.50;5028569;28;20433;-73
2023/05/16 00:09:57;;;;;;;12.40;9.88;;;;;;;17.19;71.98;100109.97;5020998;28;20385;-74
2023/05/16 00:12:23;;;;;;;11.45;10.10;;;;;;;17.14;72.32;100099.91;5032700;28;20728;-74
2023/05/16 00:14:50;;;;;;;10.43;9.43;;;;;;;17.16;71.98;100102.34;5034551;28;20465;-74
2023/05/16 00:17:18;;;;;;;11.63;9.75;;;;;;;17.11;72.76;100095.03;5033750;28;20422;-74
2023/05/16 00:19:46;;;;;;;12.75;10.43;;;;;;;17.13;72.24;100093.59;5005375;28;20400;-74
2023/05/16 00:22:11;;;;;;;11.52;10.43;;;;;;;17.12;72.10;100102.91;5024962;28;20912;-74
2023/05/16 00:24:37;;;;;;;12.20;10.50;;;;;;;17.10;72.11;100098.84;5017242;28;20399;-74
2023/05/16 00:27:02;;;;;;;11.13;9.93;;;;;;;17.11;71.82;100097.75;5026685;28;20418;-74
2023/05/16 00:29:30;;;;;;;13.48;10.90;;;;;;;17.08;71.95;100101.09;5034432;28;20853;-74
2023/05/16 00:31:55;;;;;;;11.55;10.40;;;;;;;17.05;72.18;100091.56;5034033;28;20391;-74
2023/05/16 00:34:21;;;;;;;12.53;11.33;;;;;;;17.05;72.33;100091.56;5023677;28;20921;-74
2023/05/16 00:36:47;;;;;;;12.40;10.17;;;;;;;17.08;72.33;100107.38;5028666;28;20411;-74
2023/05/16 00:39:12;;;;;;;10.90;9.80;;;;;;;17.06;72.58;100101.38;5034250;28;20514;-74
2023/05/16 00:41:38;;;;;;;14.40;10.43;;;;;;;17.03;72.68;100099.22;5034091;28;20403;-74
2023/05/16 00:44:03;;;;;;;12.35;11.05;;;;;;;17.02;72.89;100102.28;5034010;28;20395;-74
2023/05/16 00:46:28;;;;;;;12.50;11.17;;;;;;;17.05;72.91;100097.03;5033076;28;20398;-74
2023/05/16 00:48:54;;;;;;;10.97;9.87;;;;;;;17.04;73.06;100095.41;5032750;28;20395;-74
2023/05/16 00:51:19;;;;;;;16.07;10.97;;;;;;;17.06;72.96;100095.91;5034040;28;20722;-74
2023/05/16 00:53:45;;;;;;;12.70;11.50;;;;;;;17.06;72.89;100098.63;5024118;28;20453;-74
2023/05/16 00:56:10;;;;;;;14.02;10.90;;;;;;;17.04;72.84;100103.59;5031596;28;20418;-74
2023/05/16 00:58:36;;;;;;;13.13;10.93;;;;;;;16.97;72.99;100105.06;5024075;28;20422;-74
2023/05/16 01:01:04;;;;;;;16.45;10.95;;;;;;;16.92;73.42;100103.25;5025127;28;20398;-73
2023/05/16 01:03:30;;;;;;;11.00;10.00;;;;;;;16.93;72.77;100098.56;5033889;28;20399;-74
2023/05/16 01:05:56;;;;;;;10.87;9.57;;;;;;;16.93;72.64;100101.28;5030316;28;20404;-74
2023/05/16 01:08:23;;;;;;;12.10;10.80;;;;;;;16.90;72.56;100099.16;5024492;28;20452;-74
2023/05/16 01:10:59;;;;;;;11.68;10.30;;;;;;;16.92;72.64;100095.03;5025141;28;20394;-74
2023/05/16 01:13:36;;;;;;;11.05;9.95;;;;;;;16.95;72.32;100105.38;5023171;28;20439;-74
2023/05/16 01:16:05;;;;;;;10.95;9.95;;;;;;;16.93;72.28;100099.38;5027915;28;20416;-74
2023/05/16 01:18:50;;;;;;;10.65;9.55;;;;;;;16.84;72.58;100109.38;5023272;28;20407;-74
2023/05/16 01:21:27;;;;;;;10.90;9.80;;;;;;;16.71;72.53;100104.63;5032173;28;20867;-74
2023/05/16 01:24:11;;;;;;;11.63;10.27;;;;;;;16.67;72.62;100103.56;5033362;28;20386;-74
2023/05/16 01:26:38;;;;;;;11.57;10.43;;;;;;;16.76;72.56;100106.47;5056641;28;20413;-74
2023/05/16 01:29:04;;;;;;;13.77;9.70;;;;;;;16.75;73.09;100111.13;5029531;28;20383;-74
2023/05/16 01:31:30;;;;;;;12.37;9.77;;;;;;;16.75;72.36;100102.94;5028971;28;20387;-74
2023/05/16 01:33:56;;;;;;;12.33;10.30;;;;;;;16.69;72.22;100098.63;5022492;28;20905;-74
2023/05/16 01:37:04;;;;;;;11.10;9.60;;;;;;;16.66;72.40;100096.50;5030443;28;20422;-74
2023/05/16 01:39:44;;;;;;;11.38;10.18;;;;;;;16.76;72.20;100103.75;5016247;28;20415;-74
2023/05/16 01:42:18;;;;;;;11.70;10.50;;;;;;;16.80;71.96;100105.56;5030879;28;20444;-74
2023/05/16 01:45:13;;;;;;;12.25;11.00;;;;;;;16.78;71.95;100107.81;5016664;28;20409;-74
2023/05/16 01:47:43;;;;;;;11.60;10.50;;;;;;;16.78;72.01;100104.25;5019759;28;20415;-74
2023/05/16 01:50:13;;;;;;;14.25;10.73;;;;;;;16.79;72.01;100103.97;5064893;28;20914;-74
2023/05/16 01:52:48;;;;;;;12.95;11.23;;;;;;;16.79;71.73;100106.72;5031254;28;20410;-74
2023/05/16 01:55:20;;;;;;;16.17;13.02;;;;;;;16.75;71.66;100108.41;5022503;28;20821;-74
2023/05/16 01:57:48;;;;;;;14.43;12.93;;;;;;;16.74;71.59;100108.69;5027467;28;20408;-73
2023/05/16 02:00:14;;;;;;;14.77;12.77;;;;;;;16.70;71.48;100111.19;5029432;28;20434;-73
2023/05/16 02:02:39;;;;;;;15.88;13.32;;;;;;;16.68;71.47;100112.59;5031670;28;20475;-74
2023/05/16 02:05:05;;;;;;;17.20;14.87;;;;;;;16.70;71.25;100110.38;5030867;28;20395;-74
2023/05/16 02:07:30;;;;;;;20.27;14.38;;;;;;;16.77;70.75;100119.03;5024924;28;20414;-74
2023/05/16 02:09:56;;;;;;;18.03;14.80;;;;;;;16.78;70.53;100117.94;5032672;28;20470;-74
2023/05/16 02:12:21;;;;;;;17.90;13.97;;;;;;;16.75;70.13;100119.34;5031898;28;20403;-74
2023/05/16 02:14:46;;;;;;;17.27;14.07;;;;;;;16.78;70.02;100121.50;5032449;28;20423;-74
2023/05/16 02:17:11;;;;;;;18.27;14.90;;;;;;;16.77;70.22;100119.03;5026589;28;20545;-74
2023/05/16 02:19:37;;;;;;;18.90;15.07;;;;;;;16.74;70.10;100119.63;5032239;28;20407;-73
2023/05/16 02:22:02;;;;;;;16.90;14.45;;;;;;;16.72;70.05;100119.13;5032394;28;20395;-74
2023/05/16 02:24:27;;;;;;;17.03;14.67;;;;;;;16.73;69.93;100120.75;5032365;28;20826;-74
2023/05/16 02:26:52;;;;;;;21.57;15.87;;;;;;;16.74;69.69;100117.69;5021453;28;20409;-74
2023/05/16 02:29:18;;;;;;;22.60;16.23;;;;;;;16.72;69.27;100114.47;5022220;28;20817;-78
2023/05/16 02:31:43;;;;;;;18.63;15.37;;;;;;;16.76;69.17;100117.44;5021869;28;20408;-74
2023/05/16 02:34:09;;;;;;;20.53;17.67;;;;;;;16.79;68.75;100125.88;5029658;28;20425;-74
2023/05/16 02:36:35;;;;;;;21.95;17.55;;;;;;;16.78;68.36;100126.16;5029453;28;20551;-74
2023/05/16 02:39:01;;;;;;;23.02;17.65;;;;;;;16.76;68.18;100120.94;5032234;28;20491;-74
2023/05/16 02:41:28;;;;;;;21.55;17.25;;;;;;;16.73;67.83;100112.53;5031451;28;20466;-74
2023/05/16 02:43:53;;;;;;;23.15;16.88;;;;;;;16.74;67.63;100116.88;5032153;28;20890;-74
2023/05/16 02:46:23;;;;;;;20.33;16.80;;;;;;;16.73;67.60;100128.97;5030486;28;20411;-73
2023/05/16 02:48:50;;;;;;;21.40;17.47;;;;;;;16.71;67.35;100129.25;5021057;28;20482;-74
2023/05/16 02:51:15;;;;;;;23.33;18.48;;;;;;;16.71;67.27;100117.47;5026664;28;20410;-74
2023/05/16 02:53:41;;;;;;;22.57;17.60;;;;;;;16.70;67.00;100124.03;5031783;28;20410;-73
2023/05/16 02:56:06;;;;;;;22.70;17.35;;;;;;;16.72;67.06;100119.13;5027492;28;20405;-74
2023/05/16 02:58:32;;;;;;;24.73;18.00;;;;;;;16.62;67.61;100119.25;5019702;28;20411;-74
2023/05/16 03:00:57;;;;;;;22.52;16.80;;;;;;;16.59;67.57;100126.13;5019048;28;20404;-74
2023/05/16 03:03:23;;;;;;;23.03;17.53;;;;;;;16.59;67.64;100126.94;5027114;28;20864;-74
2023/05/16 03:05:48;;;;;;;19.75;17.52;;;;;;;16.55;67.51;100130.53;5030720;28;20395;-74
2023/05/16 03:08:14;;;;;;;22.13;17.77;;;;;;;16.53;67.73;100124.53;5030395;28;20407;-74
2023/05/16 03:10:39;;;;;;;21.23;17.07;;;;;;;16.48;67.96;100136.34;5031698;28;20418;-74
2023/05/16 03:13:04;;;;;;;20.60;16.73;;;;;;;16.42;68.25;100132.03;5024613;28;20426;-75
2023/05/16 03:15:30;;;;;;;19.87;17.47;;;;;;;16.45;68.19;100130.63;5029714;28;20402;-74
2023/05/16 03:17:55;;;;;;;22.33;16.83;;;;;;;16.48;68.06;100128.13;5017783;28;20765;-74
2023/05/16 03:20:21;;;;;;;19.50;16.67;;;;;;;16.49;68.05;100131.69;5031530;28;20399;-74
2023/05/16 03:22:46;;;;;;;21.23;17.20;;;;;;;16.50;68.03;100134.09;5025155;28;20419;-74
2023/05/16 03:25:11;;;;;;;23.07;17.80;;;;;;;16.44;67.79;100129.00;5031332;28;20399;-75
2023/05/16 03:27:36;;;;;;;23.23;17.77;;;;;;;16.42;67.68;100131.22;5034858;28;20443;-74
2023/05/16 03:30:02;;;;;;;21.75;16.90;;;;;;;16.38;67.83;100136.44;5035746;28;20870;-74
2023/05/16 03:32:27;;;;;;;25.57;18.20;;;;;;;16.31;67.71;100135.16;5034201;28;20485;-74
2023/05/16 03:34:52;;;;;;;22.97;17.63;;;;;;;16.29;67.83;100140.09;5035478;28;20873;-74
2023/05/16 03:37:17;;;;;;;22.57;17.90;;;;;;;16.37;67.61;100139.44;5032369;28;20446;-74
2023/05/16 03:39:43;;;;;;;23.50;18.23;;;;;;;16.38;67.20;100133.72;5035424;28;20438;-74
2023/05/16 03:42:08;;;;;;;25.13;17.33;;;;;;;16.32;67.19;100142.25;5035509;28;20398;-74
2023/05/16 03:44:34;;;;;;;21.95;16.92;;;;;;;16.34;67.27;100146.31;5067433;28;20433;-75
2023/05/16 03:46:59;;;;;;;22.60;17.20;;;;;;;16.36;66.99;100148.78;5035011;28;20395;-74
2023/05/16 03:49:28;;;;;;;25.87;18.37;;;;;;;16.35;66.97;100147.16;5021214;28;20465;-75
2023/05/16 03:51:54;;;;;;;24.70;17.15;;;;;;;16.31;66.81;100148.81;5033987;28;20395;-74
2023/05/16 03:54:19;;;;;;;23.63;16.67;;;;;;;16.30;66.96;100158.16;5034326;28;20509;-74
2023/05/16 03:56:45;;;;;;;22.20;17.10;;;;;;;16.31;66.71;100157.84;5035055;28;20410;-74
2023/05/16 03:59:10;;;;;;;22.90;16.63;;;;;;;16.36;66.74;100157.00;5022629;28;20427;-74
2023/05/16 04:01:35;;;;;;;22.10;17.23;;;;;;;16.28;66.84;100161.16;5035105;28;20383;-74
2023/05/16 04:04:00;;;;;;;22.73;17.07;;;;;;;16.20;66.82;100164.50;5026692;28;20423;-75
2023/05/16 04:06:26;;;;;;;23.43;16.70;;;;;;;16.14;66.88;100162.13;5026558;28;20454;-74
2023/05/16 04:08:51;;;;;;;21.20;16.47;;;;;;;16.15;66.95;100166.50;5029491;28;20417;-74
2023/05/16 04:11:16;;;;;;;20.90;16.73;;;;;;;16.17;66.84;100167.81;5028630;28;20521;-74
2023/05/16 04:13:41;;;;;;;24.40;16.70;;;;;;;16.14;66.92;100171.16;5030756;28;20422;-74
2023/05/16 04:16:07;;;;;;;21.77;16.80;;;;;;;16.19;66.86;100178.50;5022943;28;20407;-74
2023/05/16 04:18:32;;;;;;;24.07;16.70;;;;;;;16.15;67.05;100175.50;5033194;28;20961;-74
2023/05/16 04:20:57;;;;;;;23.05;17.58;;;;;;;16.12;66.95;100178.00;5034546;28;20395;-75
2023/05/16 04:23:22;;;;;;;20.83;16.30;;;;;;;16.14;66.97;100181.25;5032604;28;20398;-74
2023/05/16 04:25:49;;;;;;;20.80;15.87;;;;;;;16.12;66.94;100181.56;5027780;28;20403;-74
2023/05/16 04:28:15;;;;;;;22.95;16.33;;;;;;;16.09;66.74;100184.88;5029541;28;20866;-74
2023/05/16 04:30:40;;;;;;;20.70;16.25;;;;;;;16.06;67.26;100177.25;5034164;28;20403;-74
2023/05/16 04:33:06;;;;;;;22.37;15.90;;;;;;;16.11;67.11;100182.66;5032406;28;20916;-74
2023/05/16 04:35:32;;;;;;;22.57;16.20;;;;;;;16.17;66.90;100184.22;5026732;28;20441;-74
2023/05/16 04:37:57;;;;;;;20.10;16.33;;;;;;;16.15;66.82;100186.44;5033946;28;20395;-74
2023/05/16 04:40:24;;;;;;;25.23;17.57;;;;;;;16.07;66.91;100192.53;5034022;28;20418;-74
2023/05/16 04:42:49;;;;;;;21.95;15.30;;;;;;;16.06;67.18;100182.72;5027205;28;20419;-74
2023/05/16 04:45:15;;;;;;;22.07;16.10;;;;;;;16.14;66.94;100181.25;5014591;28;20403;-73
2023/05/16 04:47:41;;;;;;;22.33;15.93;;;;;;;16.16;67.00;100179.06;5032748;28;20438;-74
2023/05/16 04:50:10;;;;;;;20.88;15.40;;;;;;;16.14;67.17;100184.81;5034057;28;20421;-74
2023/05/16 04:52:37;;;;;;;24.63;15.65;;;;;;;16.16;66.90;100181.81;5023902;28;20399;-74
2023/05/16 04:55:03;;;;;;;19.08;15.10;;;;;;;16.24;66.14;100183.91;5032939;28;20961;-74
2023/05/16 04:57:28;;;;;;;21.17;15.55;;;;;;;16.25;66.12;100182.81;5018310;28;20495;-74
2023/05/16 04:59:53;;;;;;;19.77;14.70;;;;;;;16.26;65.89;100193.47;5043820;28;20483;-74
2023/05/16 05:02:19;;;;;;;21.33;15.17;;;;;;;16.32;65.03;100192.31;5033032;28;20953;-74
2023/05/16 05:04:45;;;;;;;22.80;15.50;;;;;;;16.33;64.99;100199.41;5033814;28;20398;-75
2023/05/16 05:07:10;;;;;;;20.17;15.32;;;;;;;16.27;65.20;100197.00;5029784;28;20411;-74
2023/05/16 05:09:35;;;;;;;20.97;15.53;;;;;;;16.22;65.61;100191.59;5031050;28;20813;-74
2023/05/16 05:12:00;;;;;;;17.85;13.85;;;;;;;16.20;65.57;100199.28;5033895;28;20419;-73
2023/05/16 05:14:26;;;;;;;21.23;14.60;;;;;;;16.20;65.55;100197.31;5029130;28;20422;-73
2023/05/16 05:16:51;;;;;;;22.20;14.33;;;;;;;16.20;65.00;100205.53;5029135;28;20482;-74
2023/05/16 05:19:16;;;;;;;23.90;14.02;;;;;;;16.15;65.45;100204.78;5033381;28;20399;-73
2023/05/16 05:21:42;;;;;;;18.93;14.07;;;;;;;16.06;65.53;100207.31;5032479;28;20498;-73
2023/05/16 05:24:07;;;;;;;19.53;14.83;;;;;;;16.08;65.87;100216.03;5030762;28;20419;-73
2023/05/16 05:26:32;;;;;;;21.27;13.93;;;;;;;16.09;65.74;100213.03;5031092;28;20849;-73
2023/05/16 05:29:01;;;;;;;18.37;13.77;;;;;;;16.12;65.64;100219.00;5039191;28;20403;-74
2023/05/16 05:31:26;;;;;;;20.07;14.23;;;;;;;16.02;66.08;100211.72;5031182;28;20494;-74
2023/05/16 05:33:51;;;;;;;20.77;14.07;;;;;;;15.98;66.29;100216.13;5031636;28;20974;-73
2023/05/16 05:36:17;;;;;;;19.27;13.23;;;;;;;16.04;65.74;100218.53;5030339;28;20430;-74
2023/05/16 05:38:42;;;;;;;16.80;13.80;;;;;;;16.01;65.76;100221.00;5029943;28;20461;-74
2023/05/16 05:41:07;;;;;;;18.93;13.63;;;;;;;15.93;65.89;100221.66;5031317;28;20489;-74
2023/05/16 05:43:33;;;;;;;19.30;13.83;;;;;;;15.93;65.06;100218.91;5033364;28;20940;-74
2023/05/16 05:45:58;;;;;;;23.80;14.07;;;;;;;15.86;65.49;100219.25;5029347;28;20542;-75
2023/05/16 05:48:24;;;;;;;19.37;13.57;;;;;;;15.85;65.52;100230.44;5033185;28;20481;-75
2023/05/16 05:50:49;;;;;;;20.27;13.60;;;;;;;15.90;65.51;100231.25;5028432;28;20404;-75
2023/05/16 05:53:15;;;;;;;18.07;13.93;;;;;;;15.87;65.92;100220.06;5030296;28;20419;-75
2023/05/16 05:55:49;;;;;;;21.20;14.20;;;;;;;15.94;65.52;100229.53;5039856;28;20885;-76
2023/05/16 05:58:16;;;;;;;23.83;14.25;;;;;;;15.88;65.81;100227.97;5033622;28;20482;-74
2023/05/16 06:00:42;;;;;;;21.37;14.27;;;;;;;15.93;65.70;100229.84;5027500;28;20409;-74
2023/05/16 06:03:07;;;;;;;18.77;12.70;;;;;;;15.93;65.36;100230.66;5033336;28;20391;-73
2023/05/16 06:05:32;;;;;;;19.33;13.73;;;;;;;16.01;65.48;100231.94;5034494;28;20886;-73
2023/05/16 06:07:58;;;;;;;21.27;12.97;;;;;;;16.02;65.43;100236.31;5032369;28;20866;-75
2023/05/16 06:10:23;;;;;;;17.73;13.23;;;;;;;15.99;65.18;100237.72;5027974;28;20429;-74
2023/05/16 06:12:48;;;;;;;20.07;13.27;;;;;;;16.03;65.02;100246.16;5062249;28;20465;-73
2023/05/16 06:15:14;;;;;;;21.07;13.13;;;;;;;16.04;64.76;100239.56;5022874;28;20751;-75
2023/05/16 06:17:40;;;;;;;18.37;13.50;;;;;;;15.99;65.09;100247.81;5031646;28;20399;-75
2023/05/16 06:20:07;;;;;;;19.77;12.97;;;;;;;15.91;65.15;100238.31;5030483;28;20401;-75
2023/05/16 06:22:32;;;;;;;21.15;12.23;;;;;;;15.86;65.42;100245.75;5028870;28;20410;-73
2023/05/16 06:24:57;;;;;;;15.83;11.50;;;;;;;15.86;65.28;100243.00;5031564;28;20762;-75
2023/05/16 06:27:23;;;;;;;15.23;10.80;;;;;;;15.78;65.32;100254.53;5029654;28;20412;-76
2023/05/16 06:29:48;;;;;;;15.13;10.43;;;;;;;15.83;65.07;100255.34;5030978;28;20418;-75
2023/05/16 06:32:16;;;;;;;17.50;11.77;;;;;;;15.85;65.22;100247.66;5032187;28;20477;-76
2023/05/16 06:34:44;;;;;;;17.23;10.35;;;;;;;15.83;65.08;100258.06;5030641;28;20428;-75
2023/05/16 06:37:09;;;;;;;17.90;11.43;;;;;;;15.78;65.60;100258.09;5030592;28;20402;-75
2023/05/16 06:39:35;;;;;;;14.27;9.73;;;;;;;15.85;65.48;100264.06;5030308;28;20872;-75
2023/05/16 06:42:00;;;;;;;13.60;9.97;;;;;;;15.91;64.80;100267.56;5027070;28;20408;-75
2023/05/16 06:44:26;;;;;;;13.75;9.55;;;;;;;15.94;64.97;100270.53;5028011;28;20435;-76
2023/05/16 06:46:51;;;;;;;14.20;9.30;;;;;;;15.95;65.15;100263.16;5031862;28;20387;-75
2023/05/16 06:49:17;;;;;;;11.73;8.60;;;;;;;15.91;64.98;100271.09;5031904;28;20391;-75
2023/05/16 06:51:42;;;;;;;10.93;7.83;;;;;;;15.85;64.94;100276.91;5031797;28;20395;-75
2023/05/16 06:54:07;;;;;;;11.18;8.05;;;;;;;15.82;65.09;100281.03;5030523;28;20414;-75
2023/05/16 06:56:33;;;;;;;11.73;7.47;;;;;;;15.89;64.81;100283.44;5024065;28;20415;-75
2023/05/16 06:59:00;;;;;;;11.40;7.23;;;;;;;15.93;64.57;100288.06;5019143;28;20469;-75
2023/05/16 07:01:28;;;;;;;8.88;6.60;;;;;;;15.92;64.59;100282.84;5027305;28;20403;-75
2023/05/16 07:03:53;;;;;;;6.65;5.00;;;;;;;15.86;64.70;100293.03;5030740;28;20403;-76
2023/05/16 07:06:18;;;;;;;5.73;4.10;;;;;;;15.89;64.52;100291.63;5034028;28;20398;-75
2023/05/16 07:08:44;;;;;;;5.77;4.30;;;;;;;16.01;63.78;100281.97;5030246;28;20478;-75
2023/05/16 07:11:10;;;;;;;6.77;4.03;;;;;;;16.01;63.66;100284.69;5023412;28;20437;-75
2023/05/16 07:13:36;;;;;;;3.50;3.20;;;;;;;16.03;63.30;100285.25;5030398;28;20425;-75
2023/05/16 07:16:01;;;;;;;4.63;3.67;;;;;;;16.04;63.60;100286.03;5031145;28;20399;-74
2023/05/16 07:18:27;;;;;;;4.37;3.17;;;;;;;16.03;63.74;100284.44;5031255;28;20394;-74
2023/05/16 07:20:52;;;;;;;3.13;2.75;;;;;;;15.92;63.58;100291.88;5031522;28;20410;-75
2023/05/16 07:23:17;;;;;;;3.50;2.70;;;;;;;15.97;63.33;100289.09;5031608;28;20402;-75
2023/05/16 07:25:43;;;;;;;4.40;2.23;;;;;;;15.99;63.57;100284.19;5030911;28;20421;-75
2023/05/16 07:28:08;;;;;;;3.33;2.10;;;;;;;15.99;63.76;100291.56;5031734;28;20442;-75
2023/05/16 07:30:33;;;;;;;2.43;1.97;;;;;;;16.02;63.77;100288.25;5030258;28;20401;-75
2023/05/16 07:32:59;;;;;;;2.17;1.90;;;;;;;16.13;63.15;100291.72;5031083;28;20410;-75
2023/05/16 07:35:24;;;;;;;1.50;1.40;;;;;;;16.20;62.54;100293.03;5030100;28;20396;-75
2023/05/16 07:37:50;;;;;;;1.53;1.43;;;;;;;16.20;62.48;100303.16;5031178;28;20402;-75
2023/05/16 07:40:17;;;;;;;1.30;1.20;;;;;;;16.10;62.05;100304.06;5031295;28;20414;-75
2023/05/16 07:42:42;;;;;;;0.95;0.95;;;;;;;16.06;61.95;100308.47;5014215;28;20805;-75
2023/05/16 07:45:07;;;;;;;1.30;0.93;;;;;;;16.02;62.47;100308.22;5028657;28;20396;-75
2023/05/16 07:47:33;;;;;;;1.15;1.02;;;;;;;16.07;62.11;100308.16;5031194;28;20396;-75
2023/05/16 07:49:59;;;;;;;0.80;0.80;;;;;;;15.92;62.16;100308.28;5031238;28;20738;-74
2023/05/16 07:52:24;;;;;;;1.90;0.87;;;;;;;15.92;62.20;100310.19;5031031;28;20413;-74
2023/05/16 07:54:49;;;;;;;0.70;0.70;;;;;;;15.90;61.84;100318.69;5026220;28;20887;-74
2023/05/16 07:57:15;;;;;;;1.30;0.70;;;;;;;15.89;61.92;100310.75;5039755;28;20413;-74
2023/05/16 07:59:42;;;;;;;0.65;0.60;;;;;;;15.92;61.78;100311.00;5041250;28;20398;-74
2023/05/16 08:02:07;;;;;;;0.70;0.70;;;;;;;16.01;61.96;100309.31;5029204;28;20405;-74
2023/05/16 08:04:32;;;;;;;1.80;0.70;;;;;;;16.15;61.32;100309.47;5030556;28;20924;-75
2023/05/16 08:06:58;;;;;;;0.80;0.80;;;;;;;16.15;61.11;100309.47;5029586;28;20410;-75
2023/05/16 08:09:23;;;;;;;0.90;0.68;;;;;;;16.15;61.31;100308.66;5044760;28;20426;-75
2023/05/16 08:11:48;;;;;;;0.57;0.57;;;;;;;16.21;60.84;100316.53;5033933;28;20398;-75
2023/05/16 08:14:14;;;;;;;1.20;0.50;;;;;;;16.10;60.40;100315.78;5036489;28;20446;-75
2023/05/16 08:16:39;;;;;;;1.35;0.55;;;;;;;16.13;60.62;100317.16;5042898;28;20437;-76
2023/05/16 08:19:04;;;;;;;0.50;0.50;;;;;;;16.14;60.50;100328.88;5045836;28;20410;-75
2023/05/16 08:21:30;;;;;;;0.47;0.40;;;;;;;16.09;60.38;100327.03;5037621;28;20405;-74
2023/05/16 08:23:56;;;;;;;0.50;0.50;;;;;;;16.05;60.81;100323.22;5032211;28;20769;-74
2023/05/16 08:26:21;;;;;;;0.90;0.50;;;;;;;15.92;60.97;100321.13;5033503;28;20391;-75
2023/05/16 08:28:46;;;;;;;4.25;0.65;;;;;;;15.94;60.75;100336.13;5045844;28;20406;-75
2023/05/16 08:31:12;;;;;;;0.50;0.50;;;;;;;15.92;60.76;100324.69;5034760;28;20395;-75
2023/05/16 08:33:37;;;;;;;3.43;0.60;;;;;;;15.95;61.09;100331.47;5034300;28;20973;-75
2023/05/16 08:36:03;;;;;;;0.47;0.40;;;;;;;15.98;60.99;100331.72;5034578;28;20920;-75
2023/05/16 08:38:28;;;;;;;2.47;0.50;;;;;;;16.05;60.60;100326.78;5031696;28;20407;-75
2023/05/16 08:40:53;;;;;;;0.90;0.50;;;;;;;15.99;60.49;100327.09;5034131;28;20411;-75
2023/05/16 08:43:19;;;;;;;0.40;0.40;;;;;;;16.00;60.44;100332.25;5033577;28;20472;-74
2023/05/16 08:45:44;;;;;;;0.70;0.30;;;;;;;16.03;59.91;100330.91;5032405;28;20785;-75
2023/05/16 08:48:10;;;;;;;1.20;0.50;;;;;;;15.99;60.16;100330.66;5030135;28;20399;-75
2023/05/16 08:50:36;;;;;;;0.35;0.35;;;;;;;16.07;59.99;100334.69;5030575;28;20790;-75
2023/05/16 08:53:06;;;;;;;0.60;0.60;;;;;;;16.13;59.57;100330.81;5024741;28;20420;-75
2023/05/16 08:55:32;;;;;;;0.88;0.50;;;;;;;16.07;59.42;100335.50;5030101;28;20421;-74
2023/05/16 08:57:59;;;;;;;0.60;0.60;;;;;;;16.12;59.11;100340.13;5033230;28;20441;-75
2023/05/16 09:00:25;;;;;;;0.70;0.70;;;;;;;16.10;59.13;100337.66;5032099;28;20411;-75
2023/05/16 09:02:52;;;;;;;0.80;0.60;;;;;;;16.04;59.59;100327.03;5031448;28;20876;-75
2023/05/16 09:05:17;;;;;;;0.55;0.55;;;;;;;16.23;59.03;100327.19;5035142;28;20878;-74
2023/05/16 09:07:43;;;;;;;0.70;0.70;;;;;;;16.28;59.12;100329.88;5030449;28;20430;-75
2023/05/16 09:10:10;;;;;;;0.80;0.50;;;;;;;16.37;58.77;100337.19;5033768;28;20406;-75
2023/05/16 09:12:36;;;;;;;0.90;0.70;;;;;;;16.35;58.66;100341.31;5027935;28;20474;-76
2023/05/16 09:15:03;;;;;;;1.00;1.00;;;;;;;16.34;58.66;100336.94;5032247;28;20557;-76
2023/05/16 09:17:43;;;;;;;0.65;0.65;;;;;;;16.25;58.49;100347.69;5033055;28;20415;-76
2023/05/16 09:20:19;;;;;;;2.20;0.52;;;;;;;16.20;59.14;100344.19;5030286;28;20740;-76
2023/05/16 09:22:55;;;;;;;1.90;0.70;;;;;;;16.17;59.38;100350.22;5031974;28;21084;-75
2023/05/16 09:25:25;;;;;;;0.50;0.50;;;;;;;16.04;59.92;100355.19;5032243;28;20472;-74
2023/05/16 09:27:55;;;;;;;0.68;0.68;;;;;;;16.07;59.66;100348.34;5032986;28;20403;-75
2023/05/16 09:30:24;;;;;;;0.65;0.65;;;;;;;16.22;59.43;100352.91;5033007;28;20434;-75
2023/05/16 09:32:53;;;;;;;0.63;0.63;;;;;;;16.31;59.35;100353.91;5032136;28;20439;-75
2023/05/16 09:35:19;;;;;;;0.70;0.57;;;;;;;16.27;58.79;100364.59;5029681;28;20407;-75
2023/05/16 09:37:50;;;;;;;0.80;0.50;;;;;;;16.17;58.94;100364.69;5031878;28;22121;-75
2023/05/16 09:40:19;;;;;;;0.50;0.50;;;;;;;16.02;59.36;100370.25;5033271;28;20414;-75
2023/05/16 09:42:45;;;;;;;2.20;0.50;;;;;;;15.84;59.79;100379.13;5031684;28;20801;-77
2023/05/16 09:45:12;;;;;;;0.53;0.53;;;;;;;15.82;60.37;100373.09;5031465;28;20436;-76
2023/05/16 09:47:45;;;;;;;1.70;0.50;;;;;;;15.93;59.86;100378.25;5030198;28;20419;-76
2023/05/16 09:50:12;;;;;;;0.57;0.53;;;;;;;16.01;60.05;100380.38;5030029;28;20465;-76
2023/05/16 09:52:37;;;;;;;0.50;0.50;;;;;;;15.85;60.05;100376.09;5063358;28;20494;-78
2023/05/16 09:55:06;;;;;;;0.70;0.40;;;;;;;15.84;59.86;100371.72;5032078;28;21012;-76
2023/05/16 09:57:31;;;;;;;0.50;0.50;;;;;;;15.86;60.01;100382.38;5027316;28;20480;-75
2023/05/16 10:00:00;;;;;;;0.80;0.80;;;;;;;15.86;59.85;100379.66;5032044;28;20415;-74
2023/05/16 10:02:26;;;;;;;1.20;0.40;;;;;;;15.74;60.13;100373.69;5031558;28;20830;-75
2023/05/16 10:04:52;;;;;;;1.20;0.23;;;;;;;15.83;59.87;100369.28;5031083;28;20712;-75
2023/05/16 10:07:19;;;;;;;1.30;0.43;;;;;;;16.03;59.51;100374.63;5035421;28;20807;-75
2023/05/16 10:09:45;;;;;;;2.40;0.30;;;;;;;16.31;58.86;100382.09;5032063;28;20411;-75
2023/05/16 10:12:14;;;;;;;0.82;0.30;;;;;;;16.50;58.83;100377.56;5032186;28;20415;-74
2023/05/16 10:14:40;;;;;;;0.40;0.40;;;;;;;16.65;57.96;100378.56;5016599;28;20419;-75
2023/05/16 10:17:07;;;;;;;0.70;0.45;;;;;;;16.71;57.50;100375.50;5028563;28;20421;-75
2023/05/16 10:19:36;;;;;;;0.30;0.13;;;;;;;17.00;57.03;100370.84;5031954;28;20884;-74
2023/05/16 10:22:05;;;;;;;2.50;0.43;;;;;;;17.13;56.34;100364.69;5031455;28;20419;-74
2023/05/16 10:24:46;;;;;;;0.40;0.40;;;;;;;17.21;55.94;100374.19;5025542;28;20403;-74
2023/05/16 10:27:13;;;;;;;1.60;0.40;;;;;;;17.08;55.75;100378.44;5030886;28;20557;-74
2023/05/16 10:29:39;;;;;;;0.30;0.27;;;;;;;16.95;55.44;100368.19;5029764;28;20497;-74
2023/05/16 10:32:06;;;;;;;0.20;0.20;;;;;;;16.77;56.03;100365.31;5031187;28;20431;-75
2023/05/16 10:34:31;;;;;;;1.27;0.27;;;;;;;16.74;56.40;100385.06;5019475;28;20418;-74
2023/05/16 10:36:58;;;;;;;0.30;0.20;;;;;;;16.55;56.27;100380.31;5029527;28;20414;-75
2023/05/16 10:39:24;;;;;;;2.17;0.30;;;;;;;16.48;56.73;100381.69;5031313;28;20414;-77
2023/05/16 10:41:50;;;;;;;0.55;0.30;;;;;;;16.42;56.67;100383.66;5031599;28;20894;-74
2023/05/16 10:44:16;;;;;;;1.40;0.40;;;;;;;16.50;56.47;100384.94;5032138;28;20413;-75
2023/05/16 10:46:41;;;;;;;0.13;0.13;;;;;;;16.47;56.20;100394.53;5031186;28;20407;-75
2023/05/16 10:49:24;;;;;;;1.13;0.23;;;;;;;16.38;56.52;100396.25;5029213;28;20504;-75
2023/05/16 10:52:10;;;;;;;0.43;0.30;;;;;;;16.30;56.33;100399.59;5025862;28;20500;-74
2023/05/16 10:54:40;;;;;;;0.30;0.30;;;;;;;16.23;56.60;100395.56;5031769;28;20560;-74
2023/05/16 10:57:09;;;;;;;0.22;0.20;;;;;;;16.10;56.58;100403.25;5026871;28;20399;-75
2023/05/16 10:59:45;;;;;;;3.28;0.25;;;;;;;16.03;56.78;100402.78;5030016;28;20766;-75
2023/05/16 11:02:26;;;;;;;1.80;0.20;;;;;;;15.95;56.95;100402.53;5031129;28;20460;-74
2023/05/16 11:04:54;;;;;;;1.10;0.60;;;;;;;15.86;57.07;100407.78;5030402;28;20411;-75
2023/05/16 11:07:22;;;;;;;0.20;0.20;;;;;;;15.84;57.27;100404.50;5027714;28;20472;-74
2023/05/16 11:10:08;;;;;;;1.40;0.63;;;;;;;15.91;57.29;100410.50;5031040;28;20387;-75
2023/05/16 11:12:47;;;;;;;1.10;0.30;;;;;;;16.01;57.05;100401.41;5029872;28;20498;-75
2023/05/16 11:15:22;;;;;;;0.45;0.30;;;;;;;16.13;56.52;100403.81;5031371;28;20427;-75